Hovedside
METAR-TAF:

METAR-TAF

Lufthavner :

Rarotonga, Cookøyene

breddegrad: 21-12S, lengdegrad: 159-49W, høyde over havet: 7 m

Gjeldene værobservasjon

Denne rapporten ble laget for 16 minutter siden, klokken 21:00 UTC
Vind 8 kt fra Nord
Temperatur 28°C
Luftfuktighet 79%
Trykk 1011 hPa
Sikt 10 km eller mer
Få skyer i en høyde av 1600 ft
Spredte skyer i en høyde av 10000 ft

METAR: NCRG 132100Z 35008KT 9999 FEW016 SCT100 28/24 Q1011

Tid: 11:16 (21:16 UTC)

Varsel

Denne rapporten ble laget for 3 timer og 59 minutter siden, klokken 17:17 UTC
Varsel gyldig fra 13. klokken 18 UTC til 14. klokken 18 UTC
Vind 10 kt fra Nord
Sikt 10 km eller mer
Få skyer i en høyde av 1400 ft
Spredte skyer i en høyde av 5000 ft

TAF: NCRG 131717Z 1318/1418 35010KT 9999 FEW014 SCT050

Værobservasjoner og værvarsel for over 4000 flyplasser (METAR- og TAF-rapporter).

Tilgjengelige stasjoner er representert av de røde og gule prikkene på kartet.

Hold musepekeren over prikken for å se navnet på stasjonen.

Klikk så for å se værobservasjoner og -varsler.

For å forandre kartet kan du klikke på den grønne knappen med svart kryss for å zoome inn, på den grønne knappen med strek for å zoome ut, eller på de grønne pilene for å se tilstøtende kart.


METAR-TAF: